sensor_id;sensor_type;location;lat;lon;timestamp;P1;durP1;ratioP1;P2;durP2;ratioP2
82230;SDS011;71832;45.138;9.816;2023-07-31T00:01:06;21.90;;;16.95;;
82230;SDS011;71832;45.138;9.816;2023-07-31T00:03:34;22.17;;;17.85;;
82230;SDS011;71832;45.138;9.816;2023-07-31T00:06:02;21.88;;;17.10;;
82230;SDS011;71832;45.138;9.816;2023-07-31T00:08:30;23.23;;;18.00;;
82230;SDS011;71832;45.138;9.816;2023-07-31T00:10:57;22.92;;;17.98;;
82230;SDS011;71832;45.138;9.816;2023-07-31T00:13:26;22.92;;;17.88;;
82230;SDS011;71832;45.138;9.816;2023-07-31T00:15:53;22.52;;;18.10;;
82230;SDS011;71832;45.138;9.816;2023-07-31T00:18:22;22.30;;;17.83;;
82230;SDS011;71832;45.138;9.816;2023-07-31T00:20:49;20.20;;;16.80;;
82230;SDS011;71832;45.138;9.816;2023-07-31T00:23:16;23.10;;;17.88;;
82230;SDS011;71832;45.138;9.816;2023-07-31T00:25:44;21.70;;;17.30;;
82230;SDS011;71832;45.138;9.816;2023-07-31T00:28:13;24.63;;;18.40;;
82230;SDS011;71832;45.138;9.816;2023-07-31T00:30:41;23.60;;;18.50;;
82230;SDS011;71832;45.138;9.816;2023-07-31T00:33:09;21.70;;;17.25;;
82230;SDS011;71832;45.138;9.816;2023-07-31T00:35:37;22.40;;;17.95;;
82230;SDS011;71832;45.138;9.816;2023-07-31T00:38:04;21.63;;;17.50;;
82230;SDS011;71832;45.138;9.816;2023-07-31T00:40:36;21.30;;;16.77;;
82230;SDS011;71832;45.138;9.816;2023-07-31T00:43:04;23.90;;;18.73;;
82230;SDS011;71832;45.138;9.816;2023-07-31T00:45:32;23.95;;;18.88;;
82230;SDS011;71832;45.138;9.816;2023-07-31T00:47:59;22.90;;;18.15;;
82230;SDS011;71832;45.138;9.816;2023-07-31T00:50:28;22.23;;;17.42;;
82230;SDS011;71832;45.138;9.816;2023-07-31T00:52:55;21.83;;;17.70;;
82230;SDS011;71832;45.138;9.816;2023-07-31T00:55:24;23.42;;;17.33;;
82230;SDS011;71832;45.138;9.816;2023-07-31T00:57:52;19.85;;;17.10;;
82230;SDS011;71832;45.138;9.816;2023-07-31T01:00:21;19.83;;;16.55;;
82230;SDS011;71832;45.138;9.816;2023-07-31T01:02:50;21.13;;;17.95;;
82230;SDS011;71832;45.138;9.816;2023-07-31T01:05:19;20.75;;;16.65;;
82230;SDS011;71832;45.138;9.816;2023-07-31T01:10:32;18.35;;;15.40;;
82230;SDS011;71832;45.138;9.816;2023-07-31T01:13:07;21.77;;;16.20;;
82230;SDS011;71832;45.138;9.816;2023-07-31T01:15:36;18.88;;;15.00;;
82230;SDS011;71832;45.138;9.816;2023-07-31T01:18:04;20.38;;;15.38;;
82230;SDS011;71832;45.138;9.816;2023-07-31T01:20:32;17.67;;;14.55;;
82230;SDS011;71832;45.138;9.816;2023-07-31T01:23:08;17.23;;;14.25;;
82230;SDS011;71832;45.138;9.816;2023-07-31T01:26:34;18.55;;;15.40;;
82230;SDS011;71832;45.138;9.816;2023-07-31T01:31:14;17.67;;;13.73;;
82230;SDS011;71832;45.138;9.816;2023-07-31T01:33:47;17.60;;;13.93;;
82230;SDS011;71832;45.138;9.816;2023-07-31T01:36:16;18.05;;;14.73;;
82230;SDS011;71832;45.138;9.816;2023-07-31T01:38:44;19.63;;;14.20;;
82230;SDS011;71832;45.138;9.816;2023-07-31T01:41:12;17.00;;;13.93;;
82230;SDS011;71832;45.138;9.816;2023-07-31T01:43:40;15.75;;;13.38;;
82230;SDS011;71832;45.138;9.816;2023-07-31T01:46:08;15.43;;;12.98;;
82230;SDS011;71832;45.138;9.816;2023-07-31T01:48:35;15.95;;;13.38;;
82230;SDS011;71832;45.138;9.816;2023-07-31T01:51:03;15.32;;;13.32;;
82230;SDS011;71832;45.138;9.816;2023-07-31T01:53:31;15.20;;;12.50;;
82230;SDS011;71832;45.138;9.816;2023-07-31T01:55:59;19.92;;;12.80;;
82230;SDS011;71832;45.138;9.816;2023-07-31T01:58:28;14.55;;;12.25;;
82230;SDS011;71832;45.138;9.816;2023-07-31T02:00:56;14.27;;;12.20;;
82230;SDS011;71832;45.138;9.816;2023-07-31T02:03:24;16.85;;;12.35;;
82230;SDS011;71832;45.138;9.816;2023-07-31T02:05:53;16.08;;;13.13;;
82230;SDS011;71832;45.138;9.816;2023-07-31T02:08:22;15.98;;;13.10;;
82230;SDS011;71832;45.138;9.816;2023-07-31T02:10:51;15.98;;;11.70;;
82230;SDS011;71832;45.138;9.816;2023-07-31T02:13:19;15.82;;;11.70;;
82230;SDS011;71832;45.138;9.816;2023-07-31T02:15:47;15.07;;;12.43;;
82230;SDS011;71832;45.138;9.816;2023-07-31T02:18:16;17.13;;;12.30;;
82230;SDS011;71832;45.138;9.816;2023-07-31T02:20:48;14.57;;;11.30;;
82230;SDS011;71832;45.138;9.816;2023-07-31T02:23:17;12.38;;;10.88;;
82230;SDS011;71832;45.138;9.816;2023-07-31T02:25:45;14.10;;;12.25;;
82230;SDS011;71832;45.138;9.816;2023-07-31T02:28:13;14.20;;;11.18;;
82230;SDS011;71832;45.138;9.816;2023-07-31T02:30:43;13.80;;;10.80;;
82230;SDS011;71832;45.138;9.816;2023-07-31T02:33:12;14.57;;;11.52;;
82230;SDS011;71832;45.138;9.816;2023-07-31T02:35:41;15.27;;;11.25;;
82230;SDS011;71832;45.138;9.816;2023-07-31T02:38:09;14.65;;;10.82;;
82230;SDS011;71832;45.138;9.816;2023-07-31T02:40:37;12.32;;;10.60;;
82230;SDS011;71832;45.138;9.816;2023-07-31T02:43:07;15.40;;;11.20;;
82230;SDS011;71832;45.138;9.816;2023-07-31T02:45:35;15.05;;;11.20;;
82230;SDS011;71832;45.138;9.816;2023-07-31T02:48:03;16.63;;;11.63;;
82230;SDS011;71832;45.138;9.816;2023-07-31T02:50:31;15.95;;;12.18;;
82230;SDS011;71832;45.138;9.816;2023-07-31T02:52:59;20.00;;;11.73;;
82230;SDS011;71832;45.138;9.816;2023-07-31T02:55:27;16.85;;;11.35;;
82230;SDS011;71832;45.138;9.816;2023-07-31T02:57:55;14.13;;;11.23;;
82230;SDS011;71832;45.138;9.816;2023-07-31T03:00:24;14.52;;;11.10;;
82230;SDS011;71832;45.138;9.816;2023-07-31T03:02:52;16.17;;;12.18;;
82230;SDS011;71832;45.138;9.816;2023-07-31T03:05:20;11.85;;;9.88;;
82230;SDS011;71832;45.138;9.816;2023-07-31T03:07:47;14.65;;;9.93;;
82230;SDS011;71832;45.138;9.816;2023-07-31T03:10:15;14.80;;;11.27;;
82230;SDS011;71832;45.138;9.816;2023-07-31T03:12:46;17.05;;;11.57;;
82230;SDS011;71832;45.138;9.816;2023-07-31T03:15:13;14.48;;;10.40;;
82230;SDS011;71832;45.138;9.816;2023-07-31T03:17:41;11.85;;;9.63;;
82230;SDS011;71832;45.138;9.816;2023-07-31T03:20:08;14.25;;;10.40;;
82230;SDS011;71832;45.138;9.816;2023-07-31T03:22:36;14.25;;;10.25;;
82230;SDS011;71832;45.138;9.816;2023-07-31T03:25:04;14.20;;;9.98;;
82230;SDS011;71832;45.138;9.816;2023-07-31T03:27:31;13.98;;;10.48;;
82230;SDS011;71832;45.138;9.816;2023-07-31T03:29:59;14.63;;;10.52;;
82230;SDS011;71832;45.138;9.816;2023-07-31T03:32:28;14.40;;;10.68;;
82230;SDS011;71832;45.138;9.816;2023-07-31T03:34:56;12.75;;;9.68;;
82230;SDS011;71832;45.138;9.816;2023-07-31T03:37:23;13.48;;;10.52;;
82230;SDS011;71832;45.138;9.816;2023-07-31T03:39:51;13.20;;;10.55;;
82230;SDS011;71832;45.138;9.816;2023-07-31T03:42:19;13.82;;;10.77;;
82230;SDS011;71832;45.138;9.816;2023-07-31T03:44:47;13.98;;;10.63;;
82230;SDS011;71832;45.138;9.816;2023-07-31T03:47:14;13.73;;;10.60;;
82230;SDS011;71832;45.138;9.816;2023-07-31T03:49:42;13.70;;;9.48;;
82230;SDS011;71832;45.138;9.816;2023-07-31T03:52:10;12.77;;;10.07;;
82230;SDS011;71832;45.138;9.816;2023-07-31T03:54:38;14.38;;;11.18;;
82230;SDS011;71832;45.138;9.816;2023-07-31T03:57:06;16.25;;;11.15;;
82230;SDS011;71832;45.138;9.816;2023-07-31T03:59:33;14.70;;;10.13;;
82230;SDS011;71832;45.138;9.816;2023-07-31T04:02:01;13.77;;;9.88;;
82230;SDS011;71832;45.138;9.816;2023-07-31T04:04:29;13.32;;;10.75;;
82230;SDS011;71832;45.138;9.816;2023-07-31T04:06:57;13.23;;;10.30;;
82230;SDS011;71832;45.138;9.816;2023-07-31T04:09:25;15.30;;;9.77;;
82230;SDS011;71832;45.138;9.816;2023-07-31T04:11:52;14.57;;;10.68;;
82230;SDS011;71832;45.138;9.816;2023-07-31T04:14:20;11.90;;;9.27;;
82230;SDS011;71832;45.138;9.816;2023-07-31T04:16:48;10.63;;;8.60;;
82230;SDS011;71832;45.138;9.816;2023-07-31T04:19:16;11.15;;;8.43;;
82230;SDS011;71832;45.138;9.816;2023-07-31T04:21:44;11.30;;;8.73;;
82230;SDS011;71832;45.138;9.816;2023-07-31T04:24:12;11.10;;;8.70;;
82230;SDS011;71832;45.138;9.816;2023-07-31T04:26:40;12.35;;;9.10;;
82230;SDS011;71832;45.138;9.816;2023-07-31T04:29:08;12.43;;;9.35;;
82230;SDS011;71832;45.138;9.816;2023-07-31T04:31:37;13.63;;;9.93;;
82230;SDS011;71832;45.138;9.816;2023-07-31T04:34:05;13.95;;;10.32;;
82230;SDS011;71832;45.138;9.816;2023-07-31T04:36:33;14.10;;;10.15;;
82230;SDS011;71832;45.138;9.816;2023-07-31T04:39:02;13.45;;;9.88;;
82230;SDS011;71832;45.138;9.816;2023-07-31T04:41:30;14.60;;;11.25;;
82230;SDS011;71832;45.138;9.816;2023-07-31T04:43:57;13.93;;;10.65;;
82230;SDS011;71832;45.138;9.816;2023-07-31T04:46:25;14.20;;;11.57;;
82230;SDS011;71832;45.138;9.816;2023-07-31T04:48:52;13.35;;;10.77;;
82230;SDS011;71832;45.138;9.816;2023-07-31T04:51:19;14.40;;;11.30;;
82230;SDS011;71832;45.138;9.816;2023-07-31T04:53:48;16.52;;;12.07;;
82230;SDS011;71832;45.138;9.816;2023-07-31T04:56:17;15.95;;;11.93;;
82230;SDS011;71832;45.138;9.816;2023-07-31T04:58:45;16.02;;;12.48;;
82230;SDS011;71832;45.138;9.816;2023-07-31T05:01:12;15.32;;;11.52;;
82230;SDS011;71832;45.138;9.816;2023-07-31T05:03:39;15.00;;;11.55;;
82230;SDS011;71832;45.138;9.816;2023-07-31T05:06:08;19.08;;;13.27;;
82230;SDS011;71832;45.138;9.816;2023-07-31T05:08:36;18.58;;;12.88;;
82230;SDS011;71832;45.138;9.816;2023-07-31T05:11:03;15.02;;;11.73;;
82230;SDS011;71832;45.138;9.816;2023-07-31T05:13:31;15.23;;;11.80;;
82230;SDS011;71832;45.138;9.816;2023-07-31T05:15:59;15.93;;;12.38;;
82230;SDS011;71832;45.138;9.816;2023-07-31T05:18:27;17.90;;;13.30;;
82230;SDS011;71832;45.138;9.816;2023-07-31T05:20:56;19.45;;;13.07;;
82230;SDS011;71832;45.138;9.816;2023-07-31T05:23:24;19.88;;;14.02;;
82230;SDS011;71832;45.138;9.816;2023-07-31T05:25:52;20.33;;;15.50;;
82230;SDS011;71832;45.138;9.816;2023-07-31T05:28:21;18.40;;;14.75;;
82230;SDS011;71832;45.138;9.816;2023-07-31T05:30:49;21.27;;;14.48;;
82230;SDS011;71832;45.138;9.816;2023-07-31T05:33:17;16.42;;;13.65;;
82230;SDS011;71832;45.138;9.816;2023-07-31T05:35:45;19.00;;;14.63;;
82230;SDS011;71832;45.138;9.816;2023-07-31T05:38:12;19.00;;;14.35;;
82230;SDS011;71832;45.138;9.816;2023-07-31T05:40:40;17.05;;;12.95;;
82230;SDS011;71832;45.138;9.816;2023-07-31T05:43:08;17.67;;;14.18;;
82230;SDS011;71832;45.138;9.816;2023-07-31T05:45:36;16.15;;;13.02;;
82230;SDS011;71832;45.138;9.816;2023-07-31T05:48:06;16.38;;;13.23;;
82230;SDS011;71832;45.138;9.816;2023-07-31T05:50:34;15.88;;;12.40;;
82230;SDS011;71832;45.138;9.816;2023-07-31T05:53:04;16.83;;;12.30;;
82230;SDS011;71832;45.138;9.816;2023-07-31T05:55:33;16.83;;;13.10;;
82230;SDS011;71832;45.138;9.816;2023-07-31T05:58:01;17.52;;;13.63;;
82230;SDS011;71832;45.138;9.816;2023-07-31T06:00:29;16.50;;;13.18;;
82230;SDS011;71832;45.138;9.816;2023-07-31T06:02:58;16.85;;;13.88;;
82230;SDS011;71832;45.138;9.816;2023-07-31T06:05:26;14.27;;;12.52;;
82230;SDS011;71832;45.138;9.816;2023-07-31T06:07:56;15.55;;;12.75;;
82230;SDS011;71832;45.138;9.816;2023-07-31T06:10:25;17.90;;;12.85;;
82230;SDS011;71832;45.138;9.816;2023-07-31T06:12:54;15.77;;;12.27;;
82230;SDS011;71832;45.138;9.816;2023-07-31T06:15:23;14.68;;;12.43;;
82230;SDS011;71832;45.138;9.816;2023-07-31T06:17:51;15.57;;;12.25;;
82230;SDS011;71832;45.138;9.816;2023-07-31T06:20:19;16.23;;;13.30;;
82230;SDS011;71832;45.138;9.816;2023-07-31T06:22:46;15.82;;;12.80;;
82230;SDS011;71832;45.138;9.816;2023-07-31T06:25:14;18.42;;;13.18;;
82230;SDS011;71832;45.138;9.816;2023-07-31T06:27:41;17.33;;;14.32;;
82230;SDS011;71832;45.138;9.816;2023-07-31T06:30:09;16.00;;;12.77;;
82230;SDS011;71832;45.138;9.816;2023-07-31T06:32:38;15.60;;;11.52;;
82230;SDS011;71832;45.138;9.816;2023-07-31T06:35:07;14.65;;;11.68;;
82230;SDS011;71832;45.138;9.816;2023-07-31T06:37:35;15.23;;;11.40;;
82230;SDS011;71832;45.138;9.816;2023-07-31T06:40:06;12.25;;;9.85;;
82230;SDS011;71832;45.138;9.816;2023-07-31T06:42:35;13.35;;;10.48;;
82230;SDS011;71832;45.138;9.816;2023-07-31T06:45:03;11.73;;;9.45;;
82230;SDS011;71832;45.138;9.816;2023-07-31T06:47:32;12.05;;;8.38;;
82230;SDS011;71832;45.138;9.816;2023-07-31T06:50:01;10.25;;;7.80;;
82230;SDS011;71832;45.138;9.816;2023-07-31T06:52:29;9.32;;;7.13;;
82230;SDS011;71832;45.138;9.816;2023-07-31T06:55:19;9.75;;;6.68;;
82230;SDS011;71832;45.138;9.816;2023-07-31T06:57:47;9.57;;;6.63;;
82230;SDS011;71832;45.138;9.816;2023-07-31T07:00:17;8.23;;;5.90;;
82230;SDS011;71832;45.138;9.816;2023-07-31T07:02:46;8.43;;;5.22;;
82230;SDS011;71832;45.138;9.816;2023-07-31T07:05:16;7.68;;;5.50;;
82230;SDS011;71832;45.138;9.816;2023-07-31T07:07:45;7.20;;;5.35;;
82230;SDS011;71832;45.138;9.816;2023-07-31T07:12:43;8.15;;;5.18;;
82230;SDS011;71832;45.138;9.816;2023-07-31T07:15:11;7.28;;;5.70;;
82230;SDS011;71832;45.138;9.816;2023-07-31T07:17:39;5.90;;;4.68;;
82230;SDS011;71832;45.138;9.816;2023-07-31T07:20:08;6.53;;;4.32;;
82230;SDS011;71832;45.138;9.816;2023-07-31T07:22:36;5.63;;;4.40;;
82230;SDS011;71832;45.138;9.816;2023-07-31T07:25:04;7.90;;;4.60;;
82230;SDS011;71832;45.138;9.816;2023-07-31T07:27:33;7.22;;;4.38;;
82230;SDS011;71832;45.138;9.816;2023-07-31T07:30:01;6.65;;;4.72;;
82230;SDS011;71832;45.138;9.816;2023-07-31T07:32:29;5.68;;;5.07;;
82230;SDS011;71832;45.138;9.816;2023-07-31T07:34:56;6.75;;;4.60;;
82230;SDS011;71832;45.138;9.816;2023-07-31T07:37:25;6.90;;;4.32;;
82230;SDS011;71832;45.138;9.816;2023-07-31T07:39:53;6.20;;;4.00;;
82230;SDS011;71832;45.138;9.816;2023-07-31T07:42:21;9.98;;;5.30;;
82230;SDS011;71832;45.138;9.816;2023-07-31T07:44:50;12.27;;;7.97;;
82230;SDS011;71832;45.138;9.816;2023-07-31T07:47:19;6.57;;;4.70;;
82230;SDS011;71832;45.138;9.816;2023-07-31T07:49:48;13.70;;;7.07;;
82230;SDS011;71832;45.138;9.816;2023-07-31T07:52:17;10.63;;;5.57;;
82230;SDS011;71832;45.138;9.816;2023-07-31T07:54:45;7.93;;;5.60;;
82230;SDS011;71832;45.138;9.816;2023-07-31T07:57:14;6.30;;;5.00;;
82230;SDS011;71832;45.138;9.816;2023-07-31T07:59:43;6.53;;;3.95;;
82230;SDS011;71832;45.138;9.816;2023-07-31T08:02:11;4.43;;;3.17;;
82230;SDS011;71832;45.138;9.816;2023-07-31T08:04:40;5.38;;;3.60;;
82230;SDS011;71832;45.138;9.816;2023-07-31T08:07:08;5.15;;;3.78;;
82230;SDS011;71832;45.138;9.816;2023-07-31T08:09:38;4.95;;;3.97;;
82230;SDS011;71832;45.138;9.816;2023-07-31T08:12:06;6.30;;;4.43;;
82230;SDS011;71832;45.138;9.816;2023-07-31T08:14:34;5.47;;;4.03;;
82230;SDS011;71832;45.138;9.816;2023-07-31T08:17:02;5.57;;;4.20;;
82230;SDS011;71832;45.138;9.816;2023-07-31T08:19:30;6.90;;;3.83;;
82230;SDS011;71832;45.138;9.816;2023-07-31T08:21:58;6.28;;;4.55;;
82230;SDS011;71832;45.138;9.816;2023-07-31T08:24:25;6.28;;;4.57;;
82230;SDS011;71832;45.138;9.816;2023-07-31T08:26:53;5.15;;;3.60;;
82230;SDS011;71832;45.138;9.816;2023-07-31T08:29:21;5.40;;;3.67;;
82230;SDS011;71832;45.138;9.816;2023-07-31T08:31:49;4.90;;;3.33;;
82230;SDS011;71832;45.138;9.816;2023-07-31T08:34:17;3.53;;;2.75;;
82230;SDS011;71832;45.138;9.816;2023-07-31T08:36:44;3.85;;;2.88;;
82230;SDS011;71832;45.138;9.816;2023-07-31T08:39:12;4.93;;;3.42;;
82230;SDS011;71832;45.138;9.816;2023-07-31T08:41:40;4.95;;;2.85;;
82230;SDS011;71832;45.138;9.816;2023-07-31T08:44:08;4.95;;;3.22;;
82230;SDS011;71832;45.138;9.816;2023-07-31T08:46:39;4.07;;;2.97;;
82230;SDS011;71832;45.138;9.816;2023-07-31T08:49:07;4.30;;;2.72;;
82230;SDS011;71832;45.138;9.816;2023-07-31T08:51:37;5.97;;;2.80;;
82230;SDS011;71832;45.138;9.816;2023-07-31T08:54:07;3.63;;;2.72;;
82230;SDS011;71832;45.138;9.816;2023-07-31T08:56:36;6.15;;;3.30;;
82230;SDS011;71832;45.138;9.816;2023-07-31T08:59:06;3.67;;;3.03;;
82230;SDS011;71832;45.138;9.816;2023-07-31T09:01:36;5.82;;;3.05;;
82230;SDS011;71832;45.138;9.816;2023-07-31T09:04:09;5.20;;;2.80;;
82230;SDS011;71832;45.138;9.816;2023-07-31T09:06:39;3.78;;;2.67;;
82230;SDS011;71832;45.138;9.816;2023-07-31T09:09:09;3.58;;;2.63;;
82230;SDS011;71832;45.138;9.816;2023-07-31T09:11:38;5.60;;;2.92;;
82230;SDS011;71832;45.138;9.816;2023-07-31T09:14:08;4.38;;;2.60;;
82230;SDS011;71832;45.138;9.816;2023-07-31T09:16:44;4.32;;;3.15;;
82230;SDS011;71832;45.138;9.816;2023-07-31T09:19:38;4.95;;;2.78;;
82230;SDS011;71832;45.138;9.816;2023-07-31T09:22:07;4.63;;;2.78;;
82230;SDS011;71832;45.138;9.816;2023-07-31T09:24:35;4.82;;;2.88;;
82230;SDS011;71832;45.138;9.816;2023-07-31T09:27:03;4.72;;;2.95;;
82230;SDS011;71832;45.138;9.816;2023-07-31T09:29:33;5.90;;;3.00;;
82230;SDS011;71832;45.138;9.816;2023-07-31T09:32:00;4.93;;;3.10;;
82230;SDS011;71832;45.138;9.816;2023-07-31T09:34:30;4.97;;;3.40;;
82230;SDS011;71832;45.138;9.816;2023-07-31T09:37:07;5.43;;;3.28;;
82230;SDS011;71832;45.138;9.816;2023-07-31T09:39:46;4.55;;;3.03;;
82230;SDS011;71832;45.138;9.816;2023-07-31T09:42:24;5.05;;;3.05;;
82230;SDS011;71832;45.138;9.816;2023-07-31T09:44:54;4.50;;;3.38;;
82230;SDS011;71832;45.138;9.816;2023-07-31T09:47:35;3.78;;;2.83;;
82230;SDS011;71832;45.138;9.816;2023-07-31T09:50:07;8.05;;;3.35;;
82230;SDS011;71832;45.138;9.816;2023-07-31T09:52:36;4.70;;;2.95;;
82230;SDS011;71832;45.138;9.816;2023-07-31T09:55:05;5.07;;;3.13;;
82230;SDS011;71832;45.138;9.816;2023-07-31T09:57:34;3.72;;;3.35;;
82230;SDS011;71832;45.138;9.816;2023-07-31T10:00:05;4.20;;;3.30;;
82230;SDS011;71832;45.138;9.816;2023-07-31T10:02:36;4.95;;;3.30;;
82230;SDS011;71832;45.138;9.816;2023-07-31T10:05:05;4.18;;;3.55;;
82230;SDS011;71832;45.138;9.816;2023-07-31T10:07:36;5.15;;;3.30;;
82230;SDS011;71832;45.138;9.816;2023-07-31T10:10:07;4.80;;;3.55;;
82230;SDS011;71832;45.138;9.816;2023-07-31T10:12:35;5.65;;;3.45;;
82230;SDS011;71832;45.138;9.816;2023-07-31T10:15:04;5.50;;;3.47;;
82230;SDS011;71832;45.138;9.816;2023-07-31T10:17:32;5.57;;;3.97;;
82230;SDS011;71832;45.138;9.816;2023-07-31T10:20:02;6.93;;;3.92;;
82230;SDS011;71832;45.138;9.816;2023-07-31T10:22:31;5.18;;;3.70;;
82230;SDS011;71832;45.138;9.816;2023-07-31T10:24:59;5.07;;;3.67;;
82230;SDS011;71832;45.138;9.816;2023-07-31T10:27:27;5.05;;;3.65;;
82230;SDS011;71832;45.138;9.816;2023-07-31T10:29:55;5.18;;;3.00;;
82230;SDS011;71832;45.138;9.816;2023-07-31T10:32:24;3.90;;;3.03;;
82230;SDS011;71832;45.138;9.816;2023-07-31T10:34:52;5.82;;;3.13;;
82230;SDS011;71832;45.138;9.816;2023-07-31T10:42:52;5.90;;;3.40;;
82230;SDS011;71832;45.138;9.816;2023-07-31T10:45:24;4.07;;;3.22;;
82230;SDS011;71832;45.138;9.816;2023-07-31T10:47:58;4.07;;;3.40;;
82230;SDS011;71832;45.138;9.816;2023-07-31T10:50:27;5.05;;;3.60;;
82230;SDS011;71832;45.138;9.816;2023-07-31T10:53:34;5.10;;;3.00;;
82230;SDS011;71832;45.138;9.816;2023-07-31T10:56:03;6.32;;;3.40;;
82230;SDS011;71832;45.138;9.816;2023-07-31T10:58:32;4.53;;;3.35;;
82230;SDS011;71832;45.138;9.816;2023-07-31T11:01:03;3.83;;;3.40;;
82230;SDS011;71832;45.138;9.816;2023-07-31T11:06:11;6.25;;;3.50;;
82230;SDS011;71832;45.138;9.816;2023-07-31T11:08:41;5.55;;;3.60;;
82230;SDS011;71832;45.138;9.816;2023-07-31T11:11:12;5.07;;;3.47;;
82230;SDS011;71832;45.138;9.816;2023-07-31T11:13:42;7.57;;;4.30;;
82230;SDS011;71832;45.138;9.816;2023-07-31T11:16:13;5.25;;;3.83;;
82230;SDS011;71832;45.138;9.816;2023-07-31T11:18:42;5.72;;;3.85;;
82230;SDS011;71832;45.138;9.816;2023-07-31T11:21:15;6.13;;;3.55;;
82230;SDS011;71832;45.138;9.816;2023-07-31T11:23:49;5.57;;;4.03;;
82230;SDS011;71832;45.138;9.816;2023-07-31T11:26:19;4.50;;;3.70;;
82230;SDS011;71832;45.138;9.816;2023-07-31T11:28:47;5.13;;;4.00;;
82230;SDS011;71832;45.138;9.816;2023-07-31T11:31:15;5.60;;;4.13;;
82230;SDS011;71832;45.138;9.816;2023-07-31T11:33:44;6.45;;;4.00;;
82230;SDS011;71832;45.138;9.816;2023-07-31T11:36:21;5.55;;;3.88;;
82230;SDS011;71832;45.138;9.816;2023-07-31T11:38:50;5.70;;;3.88;;
82230;SDS011;71832;45.138;9.816;2023-07-31T11:41:18;6.00;;;3.70;;
82230;SDS011;71832;45.138;9.816;2023-07-31T11:43:46;7.00;;;3.80;;
82230;SDS011;71832;45.138;9.816;2023-07-31T11:46:14;5.32;;;4.03;;
82230;SDS011;71832;45.138;9.816;2023-07-31T11:48:43;5.32;;;3.80;;
82230;SDS011;71832;45.138;9.816;2023-07-31T11:51:13;6.28;;;3.72;;
82230;SDS011;71832;45.138;9.816;2023-07-31T11:53:42;4.18;;;3.60;;
82230;SDS011;71832;45.138;9.816;2023-07-31T11:56:13;4.60;;;3.50;;
82230;SDS011;71832;45.138;9.816;2023-07-31T11:58:45;5.68;;;3.88;;
82230;SDS011;71832;45.138;9.816;2023-07-31T12:01:15;6.22;;;3.85;;
82230;SDS011;71832;45.138;9.816;2023-07-31T12:03:45;6.55;;;3.97;;
82230;SDS011;71832;45.138;9.816;2023-07-31T12:06:14;5.43;;;4.18;;
82230;SDS011;71832;45.138;9.816;2023-07-31T12:08:42;5.97;;;3.80;;
82230;SDS011;71832;45.138;9.816;2023-07-31T12:11:10;6.30;;;4.28;;
82230;SDS011;71832;45.138;9.816;2023-07-31T12:13:41;4.55;;;3.58;;
82230;SDS011;71832;45.138;9.816;2023-07-31T12:16:08;9.20;;;4.20;;
82230;SDS011;71832;45.138;9.816;2023-07-31T12:18:37;7.03;;;4.30;;
82230;SDS011;71832;45.138;9.816;2023-07-31T12:21:06;6.78;;;3.95;;
82230;SDS011;71832;45.138;9.816;2023-07-31T12:23:37;6.72;;;4.13;;
82230;SDS011;71832;45.138;9.816;2023-07-31T12:26:08;7.60;;;4.28;;
82230;SDS011;71832;45.138;9.816;2023-07-31T12:28:36;7.13;;;3.90;;
82230;SDS011;71832;45.138;9.816;2023-07-31T12:31:10;6.20;;;4.35;;
82230;SDS011;71832;45.138;9.816;2023-07-31T12:33:39;5.68;;;4.45;;
82230;SDS011;71832;45.138;9.816;2023-07-31T12:36:09;8.07;;;4.22;;
82230;SDS011;71832;45.138;9.816;2023-07-31T12:38:38;6.00;;;4.07;;
82230;SDS011;71832;45.138;9.816;2023-07-31T12:41:07;6.65;;;4.22;;
82230;SDS011;71832;45.138;9.816;2023-07-31T12:43:35;7.32;;;4.43;;
82230;SDS011;71832;45.138;9.816;2023-07-31T12:46:04;4.57;;;3.95;;
82230;SDS011;71832;45.138;9.816;2023-07-31T12:48:34;7.50;;;4.68;;
82230;SDS011;71832;45.138;9.816;2023-07-31T12:51:03;5.63;;;4.20;;
82230;SDS011;71832;45.138;9.816;2023-07-31T12:53:32;7.00;;;4.30;;
82230;SDS011;71832;45.138;9.816;2023-07-31T12:56:01;6.28;;;4.10;;
82230;SDS011;71832;45.138;9.816;2023-07-31T12:58:30;5.72;;;4.20;;
82230;SDS011;71832;45.138;9.816;2023-07-31T13:00:58;6.68;;;4.13;;
82230;SDS011;71832;45.138;9.816;2023-07-31T13:03:27;6.05;;;3.85;;
82230;SDS011;71832;45.138;9.816;2023-07-31T13:05:56;5.05;;;3.97;;
82230;SDS011;71832;45.138;9.816;2023-07-31T13:08:23;6.72;;;4.03;;
82230;SDS011;71832;45.138;9.816;2023-07-31T13:10:50;6.03;;;3.90;;
82230;SDS011;71832;45.138;9.816;2023-07-31T13:13:18;5.80;;;3.75;;
82230;SDS011;71832;45.138;9.816;2023-07-31T13:15:47;7.47;;;3.90;;
82230;SDS011;71832;45.138;9.816;2023-07-31T13:18:15;5.63;;;4.10;;
82230;SDS011;71832;45.138;9.816;2023-07-31T13:20:43;5.03;;;3.90;;
82230;SDS011;71832;45.138;9.816;2023-07-31T13:23:10;6.78;;;4.03;;
82230;SDS011;71832;45.138;9.816;2023-07-31T13:25:38;5.22;;;4.05;;
82230;SDS011;71832;45.138;9.816;2023-07-31T13:28:06;5.88;;;3.65;;
82230;SDS011;71832;45.138;9.816;2023-07-31T13:30:35;4.97;;;3.67;;
82230;SDS011;71832;45.138;9.816;2023-07-31T13:33:02;6.32;;;4.00;;
82230;SDS011;71832;45.138;9.816;2023-07-31T13:35:30;6.85;;;3.90;;
82230;SDS011;71832;45.138;9.816;2023-07-31T13:37:59;5.38;;;4.32;;
82230;SDS011;71832;45.138;9.816;2023-07-31T13:40:27;5.47;;;3.60;;
82230;SDS011;71832;45.138;9.816;2023-07-31T13:42:55;4.63;;;3.72;;
82230;SDS011;71832;45.138;9.816;2023-07-31T13:45:23;5.75;;;3.70;;
82230;SDS011;71832;45.138;9.816;2023-07-31T13:47:51;5.40;;;3.85;;
82230;SDS011;71832;45.138;9.816;2023-07-31T13:50:18;6.45;;;4.00;;
82230;SDS011;71832;45.138;9.816;2023-07-31T13:52:48;6.28;;;4.13;;
82230;SDS011;71832;45.138;9.816;2023-07-31T13:55:16;8.65;;;5.38;;
82230;SDS011;71832;45.138;9.816;2023-07-31T13:57:44;5.38;;;4.32;;
82230;SDS011;71832;45.138;9.816;2023-07-31T14:00:12;6.18;;;4.13;;
82230;SDS011;71832;45.138;9.816;2023-07-31T14:02:40;4.72;;;3.40;;
82230;SDS011;71832;45.138;9.816;2023-07-31T14:05:09;7.50;;;4.35;;
82230;SDS011;71832;45.138;9.816;2023-07-31T14:07:38;5.75;;;3.88;;
82230;SDS011;71832;45.138;9.816;2023-07-31T14:10:06;6.85;;;4.10;;
82230;SDS011;71832;45.138;9.816;2023-07-31T14:12:34;7.88;;;5.97;;
82230;SDS011;71832;45.138;9.816;2023-07-31T14:15:01;5.40;;;4.03;;
82230;SDS011;71832;45.138;9.816;2023-07-31T14:17:29;7.07;;;4.50;;
82230;SDS011;71832;45.138;9.816;2023-07-31T14:19:56;4.95;;;3.97;;
82230;SDS011;71832;45.138;9.816;2023-07-31T14:22:29;5.30;;;4.55;;
82230;SDS011;71832;45.138;9.816;2023-07-31T14:24:59;6.70;;;4.78;;
82230;SDS011;71832;45.138;9.816;2023-07-31T14:27:28;6.97;;;4.35;;
82230;SDS011;71832;45.138;9.816;2023-07-31T14:29:55;5.80;;;4.07;;
82230;SDS011;71832;45.138;9.816;2023-07-31T14:32:23;7.97;;;5.95;;
82230;SDS011;71832;45.138;9.816;2023-07-31T14:34:53;9.23;;;6.35;;
82230;SDS011;71832;45.138;9.816;2023-07-31T14:37:20;6.03;;;3.90;;
82230;SDS011;71832;45.138;9.816;2023-07-31T14:39:49;4.75;;;4.00;;
82230;SDS011;71832;45.138;9.816;2023-07-31T14:42:16;7.80;;;5.25;;
82230;SDS011;71832;45.138;9.816;2023-07-31T14:44:44;6.85;;;4.90;;
82230;SDS011;71832;45.138;9.816;2023-07-31T14:47:12;8.73;;;5.80;;
82230;SDS011;71832;45.138;9.816;2023-07-31T14:49:40;8.85;;;6.13;;
82230;SDS011;71832;45.138;9.816;2023-07-31T14:52:08;8.43;;;5.50;;
82230;SDS011;71832;45.138;9.816;2023-07-31T14:54:35;41.33;;;24.50;;
82230;SDS011;71832;45.138;9.816;2023-07-31T14:57:03;7.93;;;4.60;;
82230;SDS011;71832;45.138;9.816;2023-07-31T14:59:30;7.93;;;4.10;;
82230;SDS011;71832;45.138;9.816;2023-07-31T15:01:58;6.45;;;4.45;;